PACV

Merle K. (Mudhole) Smith Airport

Airport
ICAO code
PACV
Summary
ICAO Region
NAM
ICAO Territory
Location

Cordova,

Serving
Cordova
Coordinates
60° 29' 30" N , 145° 28' 39" W
KCC
Airport BS
Bird Strike
Non Avian Wildlife Hazards to Aircraft
Airport CFIT
Altimeter Temperature Error Correction
Metar
PACV 141953Z 00000KT 10SM CLR 06/M02 A3007 RMK AO2 SLP183 T00611017 $

Description

Regional airport serving Cordova, Alaska.

Climatology

Subarctic climate (Köppen climate classification Dfc) - long, usually very cold winters, and short, cool to mild summers.

Runways

Designator Length Width Surface Rops
16/34 579 9 GVL Yes/Yes
9/27 2286 46 ASP Yes/Yes

Airport map

Aerial View

SKYbrary Partners:

Safety knowledge contributed by: